sensor_id;sensor_type;location;lat;lon;timestamp;P1;durP1;ratioP1;P2;durP2;ratioP2
54947;SDS011;41113;41.882;12.530;2023-04-24T00:00:53;12.18;;;3.95;;
54947;SDS011;41113;41.882;12.530;2023-04-24T00:03:22;14.63;;;4.30;;
54947;SDS011;41113;41.882;12.530;2023-04-24T00:05:48;11.48;;;3.83;;
54947;SDS011;41113;41.882;12.530;2023-04-24T00:08:14;10.38;;;3.63;;
54947;SDS011;41113;41.882;12.530;2023-04-24T00:10:40;11.88;;;3.33;;
54947;SDS011;41113;41.882;12.530;2023-04-24T00:13:06;11.48;;;3.58;;
54947;SDS011;41113;41.882;12.530;2023-04-24T00:15:31;9.27;;;3.50;;
54947;SDS011;41113;41.882;12.530;2023-04-24T00:17:57;12.13;;;4.05;;
54947;SDS011;41113;41.882;12.530;2023-04-24T00:20:22;16.05;;;4.03;;
54947;SDS011;41113;41.882;12.530;2023-04-24T00:22:47;11.00;;;3.80;;
54947;SDS011;41113;41.882;12.530;2023-04-24T00:25:13;12.55;;;3.47;;
54947;SDS011;41113;41.882;12.530;2023-04-24T00:27:38;10.40;;;3.45;;
54947;SDS011;41113;41.882;12.530;2023-04-24T00:30:05;13.00;;;4.00;;
54947;SDS011;41113;41.882;12.530;2023-04-24T00:32:31;10.85;;;3.53;;
54947;SDS011;41113;41.882;12.530;2023-04-24T00:34:56;11.60;;;3.47;;
54947;SDS011;41113;41.882;12.530;2023-04-24T00:37:21;12.35;;;3.60;;
54947;SDS011;41113;41.882;12.530;2023-04-24T00:39:47;9.32;;;3.30;;
54947;SDS011;41113;41.882;12.530;2023-04-24T00:42:12;10.73;;;3.70;;
54947;SDS011;41113;41.882;12.530;2023-04-24T00:44:37;9.85;;;3.67;;
54947;SDS011;41113;41.882;12.530;2023-04-24T00:47:03;10.88;;;3.60;;
54947;SDS011;41113;41.882;12.530;2023-04-24T00:49:29;14.07;;;3.90;;
54947;SDS011;41113;41.882;12.530;2023-04-24T00:51:55;13.15;;;3.97;;
54947;SDS011;41113;41.882;12.530;2023-04-24T00:54:24;11.02;;;3.47;;
54947;SDS011;41113;41.882;12.530;2023-04-24T00:56:50;10.70;;;3.65;;
54947;SDS011;41113;41.882;12.530;2023-04-24T00:59:16;11.20;;;3.22;;
54947;SDS011;41113;41.882;12.530;2023-04-24T01:01:42;12.98;;;3.80;;
54947;SDS011;41113;41.882;12.530;2023-04-24T01:04:09;11.48;;;3.42;;
54947;SDS011;41113;41.882;12.530;2023-04-24T01:06:37;10.35;;;3.45;;
54947;SDS011;41113;41.882;12.530;2023-04-24T01:09:04;9.55;;;3.10;;
54947;SDS011;41113;41.882;12.530;2023-04-24T01:11:32;11.45;;;3.45;;
54947;SDS011;41113;41.882;12.530;2023-04-24T01:13:58;9.85;;;3.05;;
54947;SDS011;41113;41.882;12.530;2023-04-24T01:16:24;9.90;;;3.03;;
54947;SDS011;41113;41.882;12.530;2023-04-24T01:18:49;11.43;;;3.63;;
54947;SDS011;41113;41.882;12.530;2023-04-24T01:21:15;9.57;;;3.20;;
54947;SDS011;41113;41.882;12.530;2023-04-24T01:23:44;11.02;;;3.28;;
54947;SDS011;41113;41.882;12.530;2023-04-24T01:26:10;9.73;;;3.20;;
54947;SDS011;41113;41.882;12.530;2023-04-24T01:28:35;10.10;;;3.03;;
54947;SDS011;41113;41.882;12.530;2023-04-24T01:31:01;9.48;;;3.42;;
54947;SDS011;41113;41.882;12.530;2023-04-24T01:33:27;10.18;;;3.53;;
54947;SDS011;41113;41.882;12.530;2023-04-24T01:35:52;15.00;;;4.10;;
54947;SDS011;41113;41.882;12.530;2023-04-24T01:38:19;10.93;;;3.25;;
54947;SDS011;41113;41.882;12.530;2023-04-24T01:40:44;8.95;;;3.47;;
54947;SDS011;41113;41.882;12.530;2023-04-24T01:43:10;11.32;;;3.45;;
54947;SDS011;41113;41.882;12.530;2023-04-24T01:45:36;16.17;;;3.78;;
54947;SDS011;41113;41.882;12.530;2023-04-24T01:48:02;9.73;;;3.80;;
54947;SDS011;41113;41.882;12.530;2023-04-24T01:50:27;10.43;;;3.50;;
54947;SDS011;41113;41.882;12.530;2023-04-24T01:52:53;10.32;;;3.42;;
54947;SDS011;41113;41.882;12.530;2023-04-24T01:55:18;9.38;;;3.60;;
54947;SDS011;41113;41.882;12.530;2023-04-24T01:57:43;11.52;;;3.50;;
54947;SDS011;41113;41.882;12.530;2023-04-24T02:00:09;10.70;;;3.35;;
54947;SDS011;41113;41.882;12.530;2023-04-24T02:02:36;11.38;;;3.63;;
54947;SDS011;41113;41.882;12.530;2023-04-24T02:05:02;9.77;;;3.17;;
54947;SDS011;41113;41.882;12.530;2023-04-24T02:07:28;10.68;;;3.78;;
54947;SDS011;41113;41.882;12.530;2023-04-24T02:09:54;14.02;;;3.35;;
54947;SDS011;41113;41.882;12.530;2023-04-24T02:12:20;11.50;;;3.85;;
54947;SDS011;41113;41.882;12.530;2023-04-24T02:14:45;10.85;;;3.90;;
54947;SDS011;41113;41.882;12.530;2023-04-24T02:17:11;10.98;;;3.42;;
54947;SDS011;41113;41.882;12.530;2023-04-24T02:19:37;14.07;;;3.72;;
54947;SDS011;41113;41.882;12.530;2023-04-24T02:22:02;9.48;;;3.40;;
54947;SDS011;41113;41.882;12.530;2023-04-24T02:24:28;10.63;;;3.53;;
54947;SDS011;41113;41.882;12.530;2023-04-24T02:26:53;9.40;;;3.50;;
54947;SDS011;41113;41.882;12.530;2023-04-24T02:29:18;11.57;;;3.40;;
54947;SDS011;41113;41.882;12.530;2023-04-24T02:31:44;13.65;;;4.07;;
54947;SDS011;41113;41.882;12.530;2023-04-24T02:34:09;13.23;;;4.07;;
54947;SDS011;41113;41.882;12.530;2023-04-24T02:36:35;11.90;;;3.97;;
54947;SDS011;41113;41.882;12.530;2023-04-24T02:39:00;12.10;;;3.78;;
54947;SDS011;41113;41.882;12.530;2023-04-24T02:41:26;12.32;;;3.83;;
54947;SDS011;41113;41.882;12.530;2023-04-24T02:43:56;11.52;;;4.07;;
54947;SDS011;41113;41.882;12.530;2023-04-24T02:46:21;11.25;;;4.60;;
54947;SDS011;41113;41.882;12.530;2023-04-24T02:48:46;11.68;;;3.97;;
54947;SDS011;41113;41.882;12.530;2023-04-24T02:51:12;12.00;;;4.03;;
54947;SDS011;41113;41.882;12.530;2023-04-24T02:53:37;11.55;;;3.78;;
54947;SDS011;41113;41.882;12.530;2023-04-24T02:56:02;11.45;;;3.92;;
54947;SDS011;41113;41.882;12.530;2023-04-24T02:58:28;12.00;;;4.10;;
54947;SDS011;41113;41.882;12.530;2023-04-24T03:00:54;12.25;;;3.92;;
54947;SDS011;41113;41.882;12.530;2023-04-24T03:03:22;11.70;;;3.80;;
54947;SDS011;41113;41.882;12.530;2023-04-24T03:05:48;11.82;;;4.32;;
54947;SDS011;41113;41.882;12.530;2023-04-24T03:08:14;12.02;;;4.13;;
54947;SDS011;41113;41.882;12.530;2023-04-24T03:10:40;12.13;;;4.35;;
54947;SDS011;41113;41.882;12.530;2023-04-24T03:13:06;16.17;;;4.30;;
54947;SDS011;41113;41.882;12.530;2023-04-24T03:15:31;13.40;;;4.35;;
54947;SDS011;41113;41.882;12.530;2023-04-24T03:17:56;11.77;;;3.85;;
54947;SDS011;41113;41.882;12.530;2023-04-24T03:20:22;13.60;;;3.50;;
54947;SDS011;41113;41.882;12.530;2023-04-24T03:22:48;13.48;;;4.47;;
54947;SDS011;41113;41.882;12.530;2023-04-24T03:25:13;14.75;;;4.28;;
54947;SDS011;41113;41.882;12.530;2023-04-24T03:27:39;12.43;;;4.07;;
54947;SDS011;41113;41.882;12.530;2023-04-24T03:30:05;10.27;;;4.32;;
54947;SDS011;41113;41.882;12.530;2023-04-24T03:32:33;10.35;;;3.78;;
54947;SDS011;41113;41.882;12.530;2023-04-24T03:34:58;12.50;;;4.13;;
54947;SDS011;41113;41.882;12.530;2023-04-24T03:37:24;11.75;;;4.28;;
54947;SDS011;41113;41.882;12.530;2023-04-24T03:39:50;12.15;;;4.45;;
54947;SDS011;41113;41.882;12.530;2023-04-24T03:42:15;14.88;;;4.93;;
54947;SDS011;41113;41.882;12.530;2023-04-24T03:44:41;12.43;;;4.03;;
54947;SDS011;41113;41.882;12.530;2023-04-24T03:47:06;12.90;;;4.15;;
54947;SDS011;41113;41.882;12.530;2023-04-24T03:49:31;11.73;;;3.85;;
54947;SDS011;41113;41.882;12.530;2023-04-24T03:51:57;10.00;;;3.88;;
54947;SDS011;41113;41.882;12.530;2023-04-24T03:54:22;12.52;;;4.07;;
54947;SDS011;41113;41.882;12.530;2023-04-24T03:56:47;11.77;;;4.28;;
54947;SDS011;41113;41.882;12.530;2023-04-24T03:59:13;10.77;;;3.97;;
54947;SDS011;41113;41.882;12.530;2023-04-24T04:01:38;11.98;;;4.82;;
54947;SDS011;41113;41.882;12.530;2023-04-24T04:04:04;11.82;;;4.22;;
54947;SDS011;41113;41.882;12.530;2023-04-24T04:06:30;11.35;;;4.32;;
54947;SDS011;41113;41.882;12.530;2023-04-24T04:08:56;11.75;;;4.60;;
54947;SDS011;41113;41.882;12.530;2023-04-24T04:11:23;11.82;;;3.95;;
54947;SDS011;41113;41.882;12.530;2023-04-24T04:13:48;10.82;;;4.30;;
54947;SDS011;41113;41.882;12.530;2023-04-24T04:16:14;15.68;;;4.55;;
54947;SDS011;41113;41.882;12.530;2023-04-24T04:18:42;11.98;;;5.65;;
54947;SDS011;41113;41.882;12.530;2023-04-24T04:21:07;11.85;;;5.15;;
54947;SDS011;41113;41.882;12.530;2023-04-24T04:23:32;12.80;;;4.82;;
54947;SDS011;41113;41.882;12.530;2023-04-24T04:25:58;12.52;;;5.07;;
54947;SDS011;41113;41.882;12.530;2023-04-24T04:28:23;11.30;;;4.30;;
54947;SDS011;41113;41.882;12.530;2023-04-24T04:30:49;14.25;;;5.25;;
54947;SDS011;41113;41.882;12.530;2023-04-24T04:33:18;11.30;;;4.82;;
54947;SDS011;41113;41.882;12.530;2023-04-24T04:35:44;11.38;;;4.65;;
54947;SDS011;41113;41.882;12.530;2023-04-24T04:38:13;17.85;;;4.80;;
54947;SDS011;41113;41.882;12.530;2023-04-24T04:40:40;16.15;;;5.20;;
54947;SDS011;41113;41.882;12.530;2023-04-24T04:43:05;13.90;;;5.30;;
54947;SDS011;41113;41.882;12.530;2023-04-24T04:45:31;13.05;;;4.88;;
54947;SDS011;41113;41.882;12.530;2023-04-24T04:47:57;14.80;;;5.55;;
54947;SDS011;41113;41.882;12.530;2023-04-24T04:50:25;13.15;;;5.57;;
54947;SDS011;41113;41.882;12.530;2023-04-24T04:52:52;13.07;;;5.28;;
54947;SDS011;41113;41.882;12.530;2023-04-24T04:55:18;13.20;;;4.75;;
54947;SDS011;41113;41.882;12.530;2023-04-24T04:57:47;14.48;;;5.03;;
54947;SDS011;41113;41.882;12.530;2023-04-24T05:00:12;11.25;;;4.85;;
54947;SDS011;41113;41.882;12.530;2023-04-24T05:02:38;13.82;;;5.20;;
54947;SDS011;41113;41.882;12.530;2023-04-24T05:05:04;18.17;;;5.03;;
54947;SDS011;41113;41.882;12.530;2023-04-24T05:07:31;13.07;;;4.90;;
54947;SDS011;41113;41.882;12.530;2023-04-24T05:09:56;13.60;;;5.57;;
54947;SDS011;41113;41.882;12.530;2023-04-24T05:12:22;14.52;;;5.97;;
54947;SDS011;41113;41.882;12.530;2023-04-24T05:14:47;19.88;;;6.47;;
54947;SDS011;41113;41.882;12.530;2023-04-24T05:17:12;13.50;;;6.47;;
54947;SDS011;41113;41.882;12.530;2023-04-24T05:19:38;13.82;;;5.85;;
54947;SDS011;41113;41.882;12.530;2023-04-24T05:22:03;19.42;;;6.40;;
54947;SDS011;41113;41.882;12.530;2023-04-24T05:24:31;34.28;;;7.88;;
54947;SDS011;41113;41.882;12.530;2023-04-24T05:26:58;16.17;;;5.97;;
54947;SDS011;41113;41.882;12.530;2023-04-24T05:29:23;12.48;;;5.20;;
54947;SDS011;41113;41.882;12.530;2023-04-24T05:31:50;11.60;;;5.38;;
54947;SDS011;41113;41.882;12.530;2023-04-24T05:34:17;14.60;;;5.68;;
54947;SDS011;41113;41.882;12.530;2023-04-24T05:36:42;15.10;;;6.70;;
54947;SDS011;41113;41.882;12.530;2023-04-24T05:39:08;10.93;;;4.95;;
54947;SDS011;41113;41.882;12.530;2023-04-24T05:41:34;16.08;;;5.25;;
54947;SDS011;41113;41.882;12.530;2023-04-24T05:44:00;12.95;;;5.65;;
54947;SDS011;41113;41.882;12.530;2023-04-24T05:46:25;15.70;;;5.80;;
54947;SDS011;41113;41.882;12.530;2023-04-24T05:48:51;13.48;;;5.40;;
54947;SDS011;41113;41.882;12.530;2023-04-24T05:51:16;13.02;;;5.93;;
54947;SDS011;41113;41.882;12.530;2023-04-24T05:53:41;16.48;;;5.78;;
54947;SDS011;41113;41.882;12.530;2023-04-24T05:56:07;12.57;;;5.72;;
54947;SDS011;41113;41.882;12.530;2023-04-24T05:58:32;13.50;;;5.75;;
54947;SDS011;41113;41.882;12.530;2023-04-24T06:00:57;13.05;;;6.05;;
54947;SDS011;41113;41.882;12.530;2023-04-24T06:03:23;15.43;;;6.32;;
54947;SDS011;41113;41.882;12.530;2023-04-24T06:05:51;15.98;;;6.15;;
54947;SDS011;41113;41.882;12.530;2023-04-24T06:08:16;14.23;;;6.38;;
54947;SDS011;41113;41.882;12.530;2023-04-24T06:10:42;19.05;;;6.35;;
54947;SDS011;41113;41.882;12.530;2023-04-24T06:13:07;15.02;;;6.18;;
54947;SDS011;41113;41.882;12.530;2023-04-24T06:15:32;15.63;;;5.70;;
54947;SDS011;41113;41.882;12.530;2023-04-24T06:17:58;13.98;;;6.30;;
54947;SDS011;41113;41.882;12.530;2023-04-24T06:20:24;13.80;;;5.57;;
54947;SDS011;41113;41.882;12.530;2023-04-24T06:22:50;13.93;;;6.22;;
54947;SDS011;41113;41.882;12.530;2023-04-24T06:25:15;13.55;;;5.72;;
54947;SDS011;41113;41.882;12.530;2023-04-24T06:27:40;22.38;;;6.57;;
54947;SDS011;41113;41.882;12.530;2023-04-24T06:30:06;15.73;;;6.80;;
54947;SDS011;41113;41.882;12.530;2023-04-24T06:32:33;15.52;;;6.78;;
54947;SDS011;41113;41.882;12.530;2023-04-24T06:34:59;14.93;;;6.70;;
54947;SDS011;41113;41.882;12.530;2023-04-24T06:37:24;18.23;;;7.18;;
54947;SDS011;41113;41.882;12.530;2023-04-24T06:39:50;16.75;;;6.57;;
54947;SDS011;41113;41.882;12.530;2023-04-24T06:42:15;18.70;;;7.00;;
54947;SDS011;41113;41.882;12.530;2023-04-24T06:44:40;17.23;;;6.90;;
54947;SDS011;41113;41.882;12.530;2023-04-24T06:47:09;16.40;;;6.70;;
54947;SDS011;41113;41.882;12.530;2023-04-24T06:49:36;20.13;;;7.43;;
54947;SDS011;41113;41.882;12.530;2023-04-24T06:52:02;13.13;;;6.07;;
54947;SDS011;41113;41.882;12.530;2023-04-24T06:54:28;16.13;;;6.70;;
54947;SDS011;41113;41.882;12.530;2023-04-24T06:56:54;16.75;;;6.82;;
54947;SDS011;41113;41.882;12.530;2023-04-24T06:59:20;17.05;;;6.75;;
54947;SDS011;41113;41.882;12.530;2023-04-24T07:01:45;14.77;;;6.80;;
54947;SDS011;41113;41.882;12.530;2023-04-24T07:04:11;15.18;;;7.47;;
54947;SDS011;41113;41.882;12.530;2023-04-24T07:06:37;17.33;;;6.68;;
54947;SDS011;41113;41.882;12.530;2023-04-24T07:09:04;18.52;;;6.95;;
54947;SDS011;41113;41.882;12.530;2023-04-24T07:11:29;18.42;;;6.80;;
54947;SDS011;41113;41.882;12.530;2023-04-24T07:13:55;20.50;;;7.65;;
54947;SDS011;41113;41.882;12.530;2023-04-24T07:16:20;16.60;;;7.63;;
54947;SDS011;41113;41.882;12.530;2023-04-24T07:18:46;19.20;;;7.55;;
54947;SDS011;41113;41.882;12.530;2023-04-24T07:21:12;17.90;;;7.20;;
54947;SDS011;41113;41.882;12.530;2023-04-24T07:23:37;19.30;;;7.10;;
54947;SDS011;41113;41.882;12.530;2023-04-24T07:26:02;15.90;;;7.43;;
54947;SDS011;41113;41.882;12.530;2023-04-24T07:28:28;21.83;;;8.10;;
54947;SDS011;41113;41.882;12.530;2023-04-24T07:30:56;17.77;;;7.10;;
54947;SDS011;41113;41.882;12.530;2023-04-24T07:33:22;17.30;;;7.40;;
54947;SDS011;41113;41.882;12.530;2023-04-24T07:35:48;14.20;;;6.60;;
54947;SDS011;41113;41.882;12.530;2023-04-24T07:38:13;14.38;;;7.13;;
54947;SDS011;41113;41.882;12.530;2023-04-24T07:40:39;17.67;;;7.75;;
54947;SDS011;41113;41.882;12.530;2023-04-24T07:43:05;15.23;;;6.90;;
54947;SDS011;41113;41.882;12.530;2023-04-24T07:45:30;18.77;;;7.07;;
54947;SDS011;41113;41.882;12.530;2023-04-24T07:47:59;13.88;;;6.57;;
54947;SDS011;41113;41.882;12.530;2023-04-24T07:50:24;23.17;;;6.70;;
54947;SDS011;41113;41.882;12.530;2023-04-24T07:52:50;16.95;;;6.72;;
54947;SDS011;41113;41.882;12.530;2023-04-24T07:55:15;15.02;;;6.28;;
54947;SDS011;41113;41.882;12.530;2023-04-24T07:57:41;16.75;;;6.80;;
54947;SDS011;41113;41.882;12.530;2023-04-24T08:00:06;20.20;;;6.93;;
54947;SDS011;41113;41.882;12.530;2023-04-24T08:02:32;23.30;;;6.97;;
54947;SDS011;41113;41.882;12.530;2023-04-24T08:04:58;18.90;;;6.20;;
54947;SDS011;41113;41.882;12.530;2023-04-24T08:07:23;20.17;;;6.82;;
54947;SDS011;41113;41.882;12.530;2023-04-24T08:09:49;13.52;;;4.72;;
54947;SDS011;41113;41.882;12.530;2023-04-24T08:12:14;13.07;;;5.22;;
54947;SDS011;41113;41.882;12.530;2023-04-24T08:14:40;15.50;;;5.78;;
54947;SDS011;41113;41.882;12.530;2023-04-24T08:17:05;17.65;;;5.40;;
54947;SDS011;41113;41.882;12.530;2023-04-24T08:19:30;19.15;;;5.80;;
54947;SDS011;41113;41.882;12.530;2023-04-24T08:21:56;14.88;;;5.72;;
54947;SDS011;41113;41.882;12.530;2023-04-24T08:24:21;16.77;;;5.28;;
54947;SDS011;41113;41.882;12.530;2023-04-24T08:26:47;14.50;;;5.45;;
54947;SDS011;41113;41.882;12.530;2023-04-24T08:29:17;12.63;;;4.63;;
54947;SDS011;41113;41.882;12.530;2023-04-24T08:31:42;16.60;;;5.35;;
54947;SDS011;41113;41.882;12.530;2023-04-24T08:34:09;14.40;;;4.70;;
54947;SDS011;41113;41.882;12.530;2023-04-24T08:36:35;14.10;;;6.03;;
54947;SDS011;41113;41.882;12.530;2023-04-24T08:39:01;16.30;;;5.22;;
54947;SDS011;41113;41.882;12.530;2023-04-24T08:41:27;22.98;;;5.90;;
54947;SDS011;41113;41.882;12.530;2023-04-24T08:43:52;17.38;;;5.10;;
54947;SDS011;41113;41.882;12.530;2023-04-24T08:46:20;13.63;;;4.93;;
54947;SDS011;41113;41.882;12.530;2023-04-24T08:48:45;16.35;;;5.47;;
54947;SDS011;41113;41.882;12.530;2023-04-24T08:51:11;20.45;;;6.88;;
54947;SDS011;41113;41.882;12.530;2023-04-24T08:53:37;20.95;;;6.30;;
54947;SDS011;41113;41.882;12.530;2023-04-24T08:56:02;19.90;;;6.00;;
54947;SDS011;41113;41.882;12.530;2023-04-24T08:58:28;19.25;;;5.65;;
54947;SDS011;41113;41.882;12.530;2023-04-24T09:00:54;14.88;;;4.50;;
54947;SDS011;41113;41.882;12.530;2023-04-24T09:03:20;15.25;;;5.22;;
54947;SDS011;41113;41.882;12.530;2023-04-24T09:05:47;13.70;;;4.93;;
54947;SDS011;41113;41.882;12.530;2023-04-24T09:08:14;19.02;;;5.35;;
54947;SDS011;41113;41.882;12.530;2023-04-24T09:10:42;17.92;;;5.20;;
54947;SDS011;41113;41.882;12.530;2023-04-24T09:13:08;17.33;;;5.45;;
54947;SDS011;41113;41.882;12.530;2023-04-24T09:15:36;16.63;;;5.03;;
54947;SDS011;41113;41.882;12.530;2023-04-24T09:18:02;18.25;;;5.72;;
54947;SDS011;41113;41.882;12.530;2023-04-24T09:20:27;17.58;;;5.63;;
54947;SDS011;41113;41.882;12.530;2023-04-24T09:22:54;15.90;;;4.70;;
54947;SDS011;41113;41.882;12.530;2023-04-24T09:25:20;14.57;;;5.15;;
54947;SDS011;41113;41.882;12.530;2023-04-24T09:27:46;15.15;;;5.93;;
54947;SDS011;41113;41.882;12.530;2023-04-24T09:30:12;13.30;;;4.90;;
54947;SDS011;41113;41.882;12.530;2023-04-24T09:32:38;13.18;;;4.05;;
54947;SDS011;41113;41.882;12.530;2023-04-24T09:35:13;17.95;;;5.70;;
54947;SDS011;41113;41.882;12.530;2023-04-24T09:42:36;14.73;;;5.13;;
54947;SDS011;41113;41.882;12.530;2023-04-24T09:45:02;13.68;;;4.95;;
54947;SDS011;41113;41.882;12.530;2023-04-24T09:47:27;15.35;;;5.03;;
54947;SDS011;41113;41.882;12.530;2023-04-24T09:49:57;20.52;;;5.53;;
54947;SDS011;41113;41.882;12.530;2023-04-24T09:52:23;19.13;;;5.63;;
54947;SDS011;41113;41.882;12.530;2023-04-24T09:54:53;16.15;;;5.63;;
54947;SDS011;41113;41.882;12.530;2023-04-24T09:57:19;20.40;;;6.05;;
54947;SDS011;41113;41.882;12.530;2023-04-24T09:59:45;20.75;;;6.07;;
54947;SDS011;41113;41.882;12.530;2023-04-24T10:02:17;17.88;;;5.65;;
54947;SDS011;41113;41.882;12.530;2023-04-24T10:04:53;16.60;;;5.15;;
54947;SDS011;41113;41.882;12.530;2023-04-24T10:07:20;18.48;;;5.45;;
54947;SDS011;41113;41.882;12.530;2023-04-24T10:09:46;15.80;;;5.03;;
54947;SDS011;41113;41.882;12.530;2023-04-24T10:12:11;16.48;;;5.05;;
54947;SDS011;41113;41.882;12.530;2023-04-24T10:14:38;16.50;;;5.70;;
54947;SDS011;41113;41.882;12.530;2023-04-24T10:17:03;17.15;;;5.43;;
54947;SDS011;41113;41.882;12.530;2023-04-24T10:19:29;18.83;;;5.55;;
54947;SDS011;41113;41.882;12.530;2023-04-24T10:21:55;23.20;;;5.88;;
54947;SDS011;41113;41.882;12.530;2023-04-24T10:24:22;20.02;;;5.38;;
54947;SDS011;41113;41.882;12.530;2023-04-24T10:26:47;15.93;;;4.50;;
54947;SDS011;41113;41.882;12.530;2023-04-24T10:29:14;15.20;;;4.40;;
54947;SDS011;41113;41.882;12.530;2023-04-24T10:31:40;15.32;;;4.68;;
54947;SDS011;41113;41.882;12.530;2023-04-24T10:34:06;15.68;;;4.40;;
54947;SDS011;41113;41.882;12.530;2023-04-24T10:36:33;17.83;;;4.05;;
54947;SDS011;41113;41.882;12.530;2023-04-24T10:39:02;17.85;;;4.47;;
54947;SDS011;41113;41.882;12.530;2023-04-24T10:41:31;21.50;;;5.00;;
54947;SDS011;41113;41.882;12.530;2023-04-24T10:44:10;20.45;;;4.95;;
54947;SDS011;41113;41.882;12.530;2023-04-24T10:46:37;21.45;;;5.20;;
54947;SDS011;41113;41.882;12.530;2023-04-24T10:49:07;16.02;;;4.35;;
54947;SDS011;41113;41.882;12.530;2023-04-24T10:51:52;18.05;;;4.15;;
54947;SDS011;41113;41.882;12.530;2023-04-24T10:56:47;13.93;;;3.80;;
54947;SDS011;41113;41.882;12.530;2023-04-24T10:59:13;15.75;;;4.40;;
54947;SDS011;41113;41.882;12.530;2023-04-24T11:01:53;18.60;;;4.50;;
54947;SDS011;41113;41.882;12.530;2023-04-24T11:04:28;21.90;;;4.75;;
54947;SDS011;41113;41.882;12.530;2023-04-24T11:06:55;18.05;;;4.38;;
54947;SDS011;41113;41.882;12.530;2023-04-24T11:09:21;17.25;;;4.40;;
54947;SDS011;41113;41.882;12.530;2023-04-24T11:11:47;16.33;;;4.68;;
54947;SDS011;41113;41.882;12.530;2023-04-24T11:14:15;13.52;;;3.70;;
54947;SDS011;41113;41.882;12.530;2023-04-24T11:16:42;13.45;;;4.22;;
54947;SDS011;41113;41.882;12.530;2023-04-24T11:24:21;15.23;;;4.68;;
54947;SDS011;41113;41.882;12.530;2023-04-24T11:26:53;16.33;;;4.22;;
54947;SDS011;41113;41.882;12.530;2023-04-24T11:29:20;15.60;;;4.00;;
54947;SDS011;41113;41.882;12.530;2023-04-24T11:31:46;12.57;;;3.22;;
54947;SDS011;41113;41.882;12.530;2023-04-24T11:34:15;13.85;;;4.20;;
54947;SDS011;41113;41.882;12.530;2023-04-24T11:36:44;18.80;;;4.18;;
54947;SDS011;41113;41.882;12.530;2023-04-24T11:39:12;14.02;;;3.75;;
54947;SDS011;41113;41.882;12.530;2023-04-24T11:41:38;15.82;;;3.88;;
54947;SDS011;41113;41.882;12.530;2023-04-24T11:44:05;16.52;;;3.00;;
54947;SDS011;41113;41.882;12.530;2023-04-24T11:46:31;17.15;;;3.45;;
54947;SDS011;41113;41.882;12.530;2023-04-24T11:48:57;21.73;;;4.00;;
54947;SDS011;41113;41.882;12.530;2023-04-24T11:51:28;17.25;;;4.07;;
54947;SDS011;41113;41.882;12.530;2023-04-24T11:53:55;17.38;;;4.32;;
54947;SDS011;41113;41.882;12.530;2023-04-24T11:56:24;13.70;;;3.75;;
54947;SDS011;41113;41.882;12.530;2023-04-24T11:58:52;15.18;;;3.55;;
54947;SDS011;41113;41.882;12.530;2023-04-24T12:01:21;15.02;;;3.72;;
54947;SDS011;41113;41.882;12.530;2023-04-24T12:03:49;15.23;;;3.58;;
54947;SDS011;41113;41.882;12.530;2023-04-24T12:06:16;12.85;;;3.20;;
54947;SDS011;41113;41.882;12.530;2023-04-24T12:08:41;16.33;;;4.07;;
54947;SDS011;41113;41.882;12.530;2023-04-24T12:11:10;18.42;;;3.55;;
54947;SDS011;41113;41.882;12.530;2023-04-24T12:13:36;15.60;;;3.88;;
54947;SDS011;41113;41.882;12.530;2023-04-24T12:16:02;12.00;;;2.80;;
54947;SDS011;41113;41.882;12.530;2023-04-24T12:18:29;14.98;;;3.28;;
54947;SDS011;41113;41.882;12.530;2023-04-24T12:21:14;14.60;;;3.50;;
54947;SDS011;41113;41.882;12.530;2023-04-24T12:23:53;14.90;;;3.05;;
54947;SDS011;41113;41.882;12.530;2023-04-24T12:26:23;17.35;;;3.60;;
54947;SDS011;41113;41.882;12.530;2023-04-24T12:28:49;17.63;;;3.60;;
54947;SDS011;41113;41.882;12.530;2023-04-24T12:31:16;14.95;;;3.70;;
54947;SDS011;41113;41.882;12.530;2023-04-24T12:33:42;19.05;;;4.35;;
54947;SDS011;41113;41.882;12.530;2023-04-24T12:36:12;12.98;;;3.80;;
54947;SDS011;41113;41.882;12.530;2023-04-24T12:38:37;14.73;;;3.85;;
54947;SDS011;41113;41.882;12.530;2023-04-24T12:41:11;13.95;;;2.90;;
54947;SDS011;41113;41.882;12.530;2023-04-24T12:43:37;16.30;;;3.83;;
54947;SDS011;41113;41.882;12.530;2023-04-24T12:46:04;14.95;;;3.53;;
54947;SDS011;41113;41.882;12.530;2023-04-24T12:48:30;16.13;;;3.63;;
54947;SDS011;41113;41.882;12.530;2023-04-24T12:50:59;18.20;;;4.25;;
54947;SDS011;41113;41.882;12.530;2023-04-24T12:53:28;17.10;;;3.33;;
54947;SDS011;41113;41.882;12.530;2023-04-24T12:55:55;17.60;;;3.63;;
54947;SDS011;41113;41.882;12.530;2023-04-24T12:58:21;18.23;;;4.13;;
54947;SDS011;41113;41.882;12.530;2023-04-24T13:00:46;21.40;;;4.70;;
54947;SDS011;41113;41.882;12.530;2023-04-24T13:03:12;17.67;;;3.63;;
54947;SDS011;41113;41.882;12.530;2023-04-24T13:05:38;19.70;;;4.07;;
54947;SDS011;41113;41.882;12.530;2023-04-24T13:08:03;17.17;;;3.83;;
54947;SDS011;41113;41.882;12.530;2023-04-24T13:10:29;19.30;;;4.90;;
54947;SDS011;41113;41.882;12.530;2023-04-24T13:12:55;14.57;;;4.05;;
54947;SDS011;41113;41.882;12.530;2023-04-24T13:15:20;16.30;;;3.85;;
54947;SDS011;41113;41.882;12.530;2023-04-24T13:17:45;20.08;;;4.97;;
54947;SDS011;41113;41.882;12.530;2023-04-24T13:20:11;18.17;;;4.05;;
54947;SDS011;41113;41.882;12.530;2023-04-24T13:22:36;16.95;;;3.65;;
54947;SDS011;41113;41.882;12.530;2023-04-24T13:25:02;16.60;;;4.15;;
54947;SDS011;41113;41.882;12.530;2023-04-24T13:27:27;14.45;;;3.78;;
54947;SDS011;41113;41.882;12.530;2023-04-24T13:29:53;11.98;;;3.45;;
54947;SDS011;41113;41.882;12.530;2023-04-24T13:32:19;20.95;;;4.05;;
54947;SDS011;41113;41.882;12.530;2023-04-24T13:34:45;13.90;;;3.55;;
54947;SDS011;41113;41.882;12.530;2023-04-24T13:37:11;15.80;;;4.30;;
54947;SDS011;41113;41.882;12.530;2023-04-24T13:39:38;17.63;;;3.95;;
54947;SDS011;41113;41.882;12.530;2023-04-24T13:42:04;20.67;;;4.07;;
54947;SDS011;41113;41.882;12.530;2023-04-24T13:44:32;15.73;;;3.25;;
54947;SDS011;41113;41.882;12.530;2023-04-24T13:46:58;14.95;;;3.45;;
54947;SDS011;41113;41.882;12.530;2023-04-24T13:49:23;19.42;;;3.50;;
54947;SDS011;41113;41.882;12.530;2023-04-24T13:51:53;14.30;;;2.90;;
54947;SDS011;41113;41.882;12.530;2023-04-24T13:54:19;18.33;;;3.65;;
54947;SDS011;41113;41.882;12.530;2023-04-24T13:56:45;20.05;;;3.20;;
54947;SDS011;41113;41.882;12.530;2023-04-24T13:59:12;18.65;;;3.03;;
54947;SDS011;41113;41.882;12.530;2023-04-24T14:01:37;13.90;;;3.47;;
54947;SDS011;41113;41.882;12.530;2023-04-24T14:04:03;14.73;;;2.80;;
54947;SDS011;41113;41.882;12.530;2023-04-24T14:06:29;17.08;;;3.42;;
54947;SDS011;41113;41.882;12.530;2023-04-24T14:08:54;13.35;;;2.95;;
54947;SDS011;41113;41.882;12.530;2023-04-24T14:11:19;16.95;;;3.55;;
54947;SDS011;41113;41.882;12.530;2023-04-24T14:13:45;15.40;;;2.58;;
54947;SDS011;41113;41.882;12.530;2023-04-24T14:16:11;15.77;;;3.10;;
54947;SDS011;41113;41.882;12.530;2023-04-24T14:18:36;16.08;;;3.20;;
54947;SDS011;41113;41.882;12.530;2023-04-24T14:21:02;15.43;;;3.13;;
54947;SDS011;41113;41.882;12.530;2023-04-24T14:23:28;15.70;;;3.58;;
54947;SDS011;41113;41.882;12.530;2023-04-24T14:25:56;15.32;;;3.20;;
54947;SDS011;41113;41.882;12.530;2023-04-24T14:28:22;15.63;;;3.30;;